sensor_id;sensor_type;location;lat;lon;timestamp;pressure;altitude;pressure_sealevel;temperature;humidity
47913;BME280;33676;51.006;17.180;2023-05-19T00:00:08;101224.00;;;11.42;77.97
47913;BME280;33676;51.006;17.180;2023-05-19T00:02:57;101222.31;;;11.38;77.95
47913;BME280;33676;51.006;17.180;2023-05-19T00:05:28;101220.18;;;11.36;78.09
47913;BME280;33676;51.006;17.180;2023-05-19T00:07:58;101219.96;;;11.34;78.23
47913;BME280;33676;51.006;17.180;2023-05-19T00:10:28;101216.98;;;11.32;78.29
47913;BME280;33676;51.006;17.180;2023-05-19T00:12:59;101213.50;;;11.29;78.28
47913;BME280;33676;51.006;17.180;2023-05-19T00:15:28;101217.48;;;11.26;78.29
47913;BME280;33676;51.006;17.180;2023-05-19T00:17:56;101220.48;;;11.24;78.44
47913;BME280;33676;51.006;17.180;2023-05-19T00:20:26;101222.29;;;11.20;78.60
47913;BME280;33676;51.006;17.180;2023-05-19T00:22:54;101222.52;;;11.16;78.55
47913;BME280;33676;51.006;17.180;2023-05-19T00:25:23;101216.21;;;11.11;78.63
47913;BME280;33676;51.006;17.180;2023-05-19T00:27:51;101216.55;;;11.06;78.64
47913;BME280;33676;51.006;17.180;2023-05-19T00:30:19;101216.71;;;11.01;78.71
47913;BME280;33676;51.006;17.180;2023-05-19T00:32:50;101216.86;;;10.96;78.77
47913;BME280;33676;51.006;17.180;2023-05-19T00:35:19;101213.03;;;10.93;78.83
47913;BME280;33676;51.006;17.180;2023-05-19T00:37:47;101208.02;;;10.89;79.04
47913;BME280;33676;51.006;17.180;2023-05-19T00:40:16;101211.11;;;10.85;79.02
47913;BME280;33676;51.006;17.180;2023-05-19T00:42:44;101212.58;;;10.81;79.27
47913;BME280;33676;51.006;17.180;2023-05-19T00:45:13;101217.02;;;10.78;79.42
47913;BME280;33676;51.006;17.180;2023-05-19T00:47:41;101216.14;;;10.75;79.39
47913;BME280;33676;51.006;17.180;2023-05-19T00:50:10;101216.96;;;10.73;79.65
47913;BME280;33676;51.006;17.180;2023-05-19T00:52:38;101216.52;;;10.72;79.73
47913;BME280;33676;51.006;17.180;2023-05-19T00:55:07;101217.31;;;10.70;79.87
47913;BME280;33676;51.006;17.180;2023-05-19T00:57:37;101215.96;;;10.70;80.01
47913;BME280;33676;51.006;17.180;2023-05-19T01:00:06;101215.10;;;10.69;80.10
47913;BME280;33676;51.006;17.180;2023-05-19T01:02:35;101216.90;;;10.68;80.13
47913;BME280;33676;51.006;17.180;2023-05-19T01:05:08;101216.95;;;10.68;80.16
47913;BME280;33676;51.006;17.180;2023-05-19T01:07:36;101212.88;;;10.66;80.25
47913;BME280;33676;51.006;17.180;2023-05-19T01:10:05;101217.04;;;10.67;80.51
47913;BME280;33676;51.006;17.180;2023-05-19T01:12:35;101209.94;;;10.65;80.44
47913;BME280;33676;51.006;17.180;2023-05-19T01:15:04;101213.73;;;10.66;80.49
47913;BME280;33676;51.006;17.180;2023-05-19T01:18:14;101212.79;;;10.64;80.50
47913;BME280;33676;51.006;17.180;2023-05-19T01:20:57;101214.59;;;10.64;80.71
47913;BME280;33676;51.006;17.180;2023-05-19T01:23:45;101212.24;;;10.62;80.77
47913;BME280;33676;51.006;17.180;2023-05-19T01:26:48;101212.75;;;10.62;80.91
47913;BME280;33676;51.006;17.180;2023-05-19T01:32:30;101215.15;;;10.57;80.94
47913;BME280;33676;51.006;17.180;2023-05-19T01:35:02;101210.80;;;10.54;81.02
47913;BME280;33676;51.006;17.180;2023-05-19T01:37:32;101212.98;;;10.53;81.11
47913;BME280;33676;51.006;17.180;2023-05-19T01:40:01;101214.48;;;10.51;81.22
47913;BME280;33676;51.006;17.180;2023-05-19T01:42:30;101216.14;;;10.50;81.16
47913;BME280;33676;51.006;17.180;2023-05-19T01:45:06;101215.86;;;10.48;81.42
47913;BME280;33676;51.006;17.180;2023-05-19T01:47:42;101218.04;;;10.47;81.44
47913;BME280;33676;51.006;17.180;2023-05-19T01:50:11;101216.08;;;10.45;81.46
47913;BME280;33676;51.006;17.180;2023-05-19T01:52:39;101217.29;;;10.43;81.62
47913;BME280;33676;51.006;17.180;2023-05-19T01:55:08;101215.63;;;10.41;81.72
47913;BME280;33676;51.006;17.180;2023-05-19T02:01:28;101212.27;;;10.37;81.94
47913;BME280;33676;51.006;17.180;2023-05-19T02:04:16;101209.25;;;10.35;81.99
47913;BME280;33676;51.006;17.180;2023-05-19T02:07:10;101208.78;;;10.31;82.09
47913;BME280;33676;51.006;17.180;2023-05-19T02:10:04;101205.94;;;10.29;82.23
47913;BME280;33676;51.006;17.180;2023-05-19T02:12:38;101202.77;;;10.26;82.32
47913;BME280;33676;51.006;17.180;2023-05-19T02:15:15;101199.52;;;10.25;82.58
47913;BME280;33676;51.006;17.180;2023-05-19T02:17:46;101204.97;;;10.25;82.50
47913;BME280;33676;51.006;17.180;2023-05-19T02:20:18;101202.09;;;10.23;82.65
47913;BME280;33676;51.006;17.180;2023-05-19T02:22:46;101199.48;;;10.23;82.79
47913;BME280;33676;51.006;17.180;2023-05-19T02:25:15;101198.67;;;10.22;82.90
47913;BME280;33676;51.006;17.180;2023-05-19T02:27:44;101198.52;;;10.22;83.02
47913;BME280;33676;51.006;17.180;2023-05-19T02:30:12;101193.08;;;10.22;83.03
47913;BME280;33676;51.006;17.180;2023-05-19T02:32:41;101196.23;;;10.22;83.18
47913;BME280;33676;51.006;17.180;2023-05-19T02:35:09;101192.55;;;10.22;83.15
47913;BME280;33676;51.006;17.180;2023-05-19T02:37:38;101193.40;;;10.23;83.38
47913;BME280;33676;51.006;17.180;2023-05-19T02:40:07;101192.02;;;10.22;83.42
47913;BME280;33676;51.006;17.180;2023-05-19T02:42:36;101191.11;;;10.22;83.63
47913;BME280;33676;51.006;17.180;2023-05-19T02:45:05;101191.02;;;10.24;83.67
47913;BME280;33676;51.006;17.180;2023-05-19T02:47:34;101186.63;;;10.25;83.84
47913;BME280;33676;51.006;17.180;2023-05-19T02:50:06;101185.73;;;10.25;83.98
47913;BME280;33676;51.006;17.180;2023-05-19T02:52:35;101186.73;;;10.26;84.05
47913;BME280;33676;51.006;17.180;2023-05-19T02:55:04;101186.52;;;10.26;84.08
47913;BME280;33676;51.006;17.180;2023-05-19T02:57:33;101188.04;;;10.27;84.12
47913;BME280;33676;51.006;17.180;2023-05-19T03:00:02;101189.91;;;10.28;84.27
47913;BME280;33676;51.006;17.180;2023-05-19T03:02:31;101191.10;;;10.29;84.42
47913;BME280;33676;51.006;17.180;2023-05-19T03:05:01;101192.09;;;10.30;84.43
47913;BME280;33676;51.006;17.180;2023-05-19T03:07:30;101190.10;;;10.31;84.49
47913;BME280;33676;51.006;17.180;2023-05-19T03:10:01;101193.01;;;10.32;84.50
47913;BME280;33676;51.006;17.180;2023-05-19T03:12:33;101193.48;;;10.33;84.58
47913;BME280;33676;51.006;17.180;2023-05-19T03:15:02;101193.14;;;10.33;84.73
47913;BME280;33676;51.006;17.180;2023-05-19T03:17:31;101190.79;;;10.34;85.02
47913;BME280;33676;51.006;17.180;2023-05-19T03:20:01;101193.21;;;10.37;85.15
47913;BME280;33676;51.006;17.180;2023-05-19T03:22:31;101191.30;;;10.39;85.23
47913;BME280;33676;51.006;17.180;2023-05-19T03:25:00;101192.33;;;10.42;85.38
47913;BME280;33676;51.006;17.180;2023-05-19T03:27:28;101193.38;;;10.45;85.45
47913;BME280;33676;51.006;17.180;2023-05-19T03:29:57;101192.04;;;10.47;85.39
47913;BME280;33676;51.006;17.180;2023-05-19T03:32:25;101187.69;;;10.49;85.62
47913;BME280;33676;51.006;17.180;2023-05-19T03:34:54;101190.36;;;10.51;85.62
47913;BME280;33676;51.006;17.180;2023-05-19T03:37:22;101191.70;;;10.54;85.79
47913;BME280;33676;51.006;17.180;2023-05-19T03:39:50;101192.61;;;10.57;86.00
47913;BME280;33676;51.006;17.180;2023-05-19T03:42:19;101196.15;;;10.59;86.07
47913;BME280;33676;51.006;17.180;2023-05-19T03:44:47;101196.33;;;10.62;86.14
47913;BME280;33676;51.006;17.180;2023-05-19T03:47:16;101198.67;;;10.66;86.36
47913;BME280;33676;51.006;17.180;2023-05-19T03:49:44;101198.27;;;10.70;86.46
47913;BME280;33676;51.006;17.180;2023-05-19T03:52:13;101196.34;;;10.73;86.58
47913;BME280;33676;51.006;17.180;2023-05-19T03:54:42;101194.36;;;10.76;86.64
47913;BME280;33676;51.006;17.180;2023-05-19T03:57:13;101196.61;;;10.79;86.79
47913;BME280;33676;51.006;17.180;2023-05-19T03:59:42;101200.21;;;10.83;86.58
47913;BME280;33676;51.006;17.180;2023-05-19T04:02:11;101199.36;;;10.85;86.69
47913;BME280;33676;51.006;17.180;2023-05-19T04:04:39;101203.02;;;10.88;86.75
47913;BME280;33676;51.006;17.180;2023-05-19T04:07:08;101205.08;;;10.92;86.66
47913;BME280;33676;51.006;17.180;2023-05-19T04:09:36;101206.05;;;10.95;86.83
47913;BME280;33676;51.006;17.180;2023-05-19T04:12:06;101205.98;;;10.99;86.84
47913;BME280;33676;51.006;17.180;2023-05-19T04:14:35;101205.95;;;11.02;86.83
47913;BME280;33676;51.006;17.180;2023-05-19T04:17:03;101208.39;;;11.05;86.78
47913;BME280;33676;51.006;17.180;2023-05-19T04:19:32;101206.64;;;11.08;87.00
47913;BME280;33676;51.006;17.180;2023-05-19T04:22:00;101208.98;;;11.12;87.15
47913;BME280;33676;51.006;17.180;2023-05-19T04:24:29;101203.42;;;11.17;87.18
47913;BME280;33676;51.006;17.180;2023-05-19T04:26:57;101206.40;;;11.22;87.17
47913;BME280;33676;51.006;17.180;2023-05-19T04:29:29;101205.52;;;11.28;87.19
47913;BME280;33676;51.006;17.180;2023-05-19T04:31:59;101206.33;;;11.34;87.38
47913;BME280;33676;51.006;17.180;2023-05-19T04:34:28;101202.96;;;11.40;87.22
47913;BME280;33676;51.006;17.180;2023-05-19T04:36:56;101204.73;;;11.47;87.16
47913;BME280;33676;51.006;17.180;2023-05-19T04:39:25;101201.92;;;11.55;87.01
47913;BME280;33676;51.006;17.180;2023-05-19T04:41:53;101197.38;;;11.60;86.90
47913;BME280;33676;51.006;17.180;2023-05-19T04:44:21;101196.13;;;11.66;86.89
47913;BME280;33676;51.006;17.180;2023-05-19T04:46:50;101201.33;;;11.71;86.98
47913;BME280;33676;51.006;17.180;2023-05-19T04:49:21;101198.04;;;11.76;86.76
47913;BME280;33676;51.006;17.180;2023-05-19T04:51:51;101196.77;;;11.79;86.59
47913;BME280;33676;51.006;17.180;2023-05-19T04:54:22;101198.58;;;11.84;86.51
47913;BME280;33676;51.006;17.180;2023-05-19T04:56:51;101198.37;;;11.87;86.33
47913;BME280;33676;51.006;17.180;2023-05-19T04:59:21;101198.05;;;11.91;86.40
47913;BME280;33676;51.006;17.180;2023-05-19T05:01:49;101202.02;;;11.97;86.63
47913;BME280;33676;51.006;17.180;2023-05-19T05:04:18;101196.21;;;12.03;86.29
47913;BME280;33676;51.006;17.180;2023-05-19T05:06:49;101203.61;;;12.10;86.36
47913;BME280;33676;51.006;17.180;2023-05-19T05:09:17;101201.44;;;12.16;86.30
47913;BME280;33676;51.006;17.180;2023-05-19T05:11:47;101200.39;;;12.21;86.12
47913;BME280;33676;51.006;17.180;2023-05-19T05:14:16;101204.35;;;12.26;86.02
47913;BME280;33676;51.006;17.180;2023-05-19T05:16:44;101205.15;;;12.30;86.01
47913;BME280;33676;51.006;17.180;2023-05-19T05:19:14;101206.50;;;12.34;85.90
47913;BME280;33676;51.006;17.180;2023-05-19T05:21:42;101216.89;;;12.38;85.83
47913;BME280;33676;51.006;17.180;2023-05-19T05:24:12;101214.10;;;12.43;85.67
47913;BME280;33676;51.006;17.180;2023-05-19T05:26:41;101213.06;;;12.45;85.42
47913;BME280;33676;51.006;17.180;2023-05-19T05:29:10;101211.23;;;12.46;85.25
47913;BME280;33676;51.006;17.180;2023-05-19T05:31:38;101209.80;;;12.48;85.12
47913;BME280;33676;51.006;17.180;2023-05-19T05:34:07;101206.35;;;12.52;85.00
47913;BME280;33676;51.006;17.180;2023-05-19T05:36:35;101206.23;;;12.56;84.81
47913;BME280;33676;51.006;17.180;2023-05-19T05:39:04;101205.96;;;12.63;84.87
47913;BME280;33676;51.006;17.180;2023-05-19T05:41:32;101212.05;;;12.68;84.78
47913;BME280;33676;51.006;17.180;2023-05-19T05:44:04;101209.84;;;12.72;84.52
47913;BME280;33676;51.006;17.180;2023-05-19T05:46:32;101209.29;;;12.73;84.28
47913;BME280;33676;51.006;17.180;2023-05-19T05:49:01;101208.53;;;12.76;84.24
47913;BME280;33676;51.006;17.180;2023-05-19T05:51:30;101211.16;;;12.81;84.31
47913;BME280;33676;51.006;17.180;2023-05-19T05:54:00;101214.52;;;12.85;84.06
47913;BME280;33676;51.006;17.180;2023-05-19T05:56:30;101214.13;;;12.88;83.94
47913;BME280;33676;51.006;17.180;2023-05-19T05:59:00;101211.45;;;12.94;83.98
47913;BME280;33676;51.006;17.180;2023-05-19T06:01:30;101211.37;;;13.00;83.88
47913;BME280;33676;51.006;17.180;2023-05-19T06:04:02;101212.95;;;13.06;83.92
47913;BME280;33676;51.006;17.180;2023-05-19T06:06:30;101216.88;;;13.12;83.79
47913;BME280;33676;51.006;17.180;2023-05-19T06:08:59;101215.95;;;13.16;83.66
47913;BME280;33676;51.006;17.180;2023-05-19T06:11:28;101221.27;;;13.18;83.54
47913;BME280;33676;51.006;17.180;2023-05-19T06:13:57;101225.45;;;13.21;83.59
47913;BME280;33676;51.006;17.180;2023-05-19T06:16:41;101224.05;;;13.23;83.51
47913;BME280;33676;51.006;17.180;2023-05-19T06:19:10;101225.23;;;13.23;83.42
47913;BME280;33676;51.006;17.180;2023-05-19T06:21:39;101225.65;;;13.22;83.19
47913;BME280;33676;51.006;17.180;2023-05-19T06:24:10;101227.41;;;13.20;83.23
47913;BME280;33676;51.006;17.180;2023-05-19T06:27:48;101228.69;;;13.24;83.18
47913;BME280;33676;51.006;17.180;2023-05-19T06:30:17;101227.34;;;13.21;83.04
47913;BME280;33676;51.006;17.180;2023-05-19T06:32:45;101228.86;;;13.19;83.25
47913;BME280;33676;51.006;17.180;2023-05-19T06:35:14;101228.89;;;13.19;83.23
47913;BME280;33676;51.006;17.180;2023-05-19T06:37:42;101229.68;;;13.20;83.15
47913;BME280;33676;51.006;17.180;2023-05-19T06:40:11;101231.58;;;13.21;83.19
47913;BME280;33676;51.006;17.180;2023-05-19T06:42:40;101230.30;;;13.24;83.26
47913;BME280;33676;51.006;17.180;2023-05-19T06:45:09;101232.04;;;13.27;83.37
47913;BME280;33676;51.006;17.180;2023-05-19T06:47:38;101236.20;;;13.28;83.35
47913;BME280;33676;51.006;17.180;2023-05-19T06:50:10;101237.52;;;13.26;83.25
47913;BME280;33676;51.006;17.180;2023-05-19T06:52:39;101238.14;;;13.24;83.42
47913;BME280;33676;51.006;17.180;2023-05-19T06:55:08;101238.51;;;13.24;83.52
47913;BME280;33676;51.006;17.180;2023-05-19T06:57:37;101237.17;;;13.23;83.29
47913;BME280;33676;51.006;17.180;2023-05-19T07:00:07;101236.49;;;13.23;83.36
47913;BME280;33676;51.006;17.180;2023-05-19T07:02:41;101241.67;;;13.22;83.32
47913;BME280;33676;51.006;17.180;2023-05-19T07:05:10;101240.36;;;13.21;83.27
47913;BME280;33676;51.006;17.180;2023-05-19T07:07:41;101238.82;;;13.18;83.22
47913;BME280;33676;51.006;17.180;2023-05-19T07:10:10;101240.21;;;13.15;82.99
47913;BME280;33676;51.006;17.180;2023-05-19T07:12:38;101245.73;;;13.14;83.09
47913;BME280;33676;51.006;17.180;2023-05-19T07:15:07;101242.39;;;13.14;83.39
47913;BME280;33676;51.006;17.180;2023-05-19T07:17:36;101240.46;;;13.17;83.27
47913;BME280;33676;51.006;17.180;2023-05-19T07:29:24;101241.37;;;13.45;83.63
47913;BME280;33676;51.006;17.180;2023-05-19T07:31:52;101247.07;;;13.51;83.56
47913;BME280;33676;51.006;17.180;2023-05-19T07:34:25;101244.45;;;13.57;83.55
47913;BME280;33676;51.006;17.180;2023-05-19T07:36:53;101247.24;;;13.63;83.30
47913;BME280;33676;51.006;17.180;2023-05-19T07:39:34;101250.83;;;13.68;83.43
47913;BME280;33676;51.006;17.180;2023-05-19T07:42:03;101253.98;;;13.75;83.47
47913;BME280;33676;51.006;17.180;2023-05-19T07:44:32;101251.70;;;13.80;83.37
47913;BME280;33676;51.006;17.180;2023-05-19T07:47:01;101250.36;;;13.82;82.98
47913;BME280;33676;51.006;17.180;2023-05-19T07:49:30;101248.54;;;13.80;82.62
47913;BME280;33676;51.006;17.180;2023-05-19T07:51:58;101248.04;;;13.77;82.55
47913;BME280;33676;51.006;17.180;2023-05-19T07:54:27;101245.30;;;13.74;82.45
47913;BME280;33676;51.006;17.180;2023-05-19T07:56:55;101244.25;;;13.72;82.52
47913;BME280;33676;51.006;17.180;2023-05-19T07:59:24;101249.87;;;13.70;82.61
47913;BME280;33676;51.006;17.180;2023-05-19T08:01:52;101249.19;;;13.71;82.62
47913;BME280;33676;51.006;17.180;2023-05-19T08:04:20;101253.98;;;13.73;82.44
47913;BME280;33676;51.006;17.180;2023-05-19T08:06:49;101248.55;;;13.77;82.51
47913;BME280;33676;51.006;17.180;2023-05-19T08:09:22;101247.48;;;13.82;82.41
47913;BME280;33676;51.006;17.180;2023-05-19T08:11:51;101244.11;;;13.92;82.71
47913;BME280;33676;51.006;17.180;2023-05-19T08:14:19;101245.14;;;14.02;82.42
47913;BME280;33676;51.006;17.180;2023-05-19T08:16:50;101241.05;;;14.11;82.38
47913;BME280;33676;51.006;17.180;2023-05-19T08:19:19;101240.02;;;14.22;82.24
47913;BME280;33676;51.006;17.180;2023-05-19T08:21:48;101241.18;;;14.32;81.95
47913;BME280;33676;51.006;17.180;2023-05-19T08:24:16;101243.79;;;14.39;81.97
47913;BME280;33676;51.006;17.180;2023-05-19T08:26:45;101238.08;;;14.47;82.04
47913;BME280;33676;51.006;17.180;2023-05-19T08:29:14;101237.45;;;14.57;81.74
47913;BME280;33676;51.006;17.180;2023-05-19T08:31:43;101237.28;;;14.70;81.93
47913;BME280;33676;51.006;17.180;2023-05-19T08:34:14;101237.25;;;14.85;81.48
47913;BME280;33676;51.006;17.180;2023-05-19T08:36:43;101238.73;;;15.04;81.44
47913;BME280;33676;51.006;17.180;2023-05-19T08:39:12;101236.02;;;15.24;81.43
47913;BME280;33676;51.006;17.180;2023-05-19T08:41:43;101236.27;;;15.43;80.92
47913;BME280;33676;51.006;17.180;2023-05-19T08:44:12;101233.73;;;15.60;80.73
47913;BME280;33676;51.006;17.180;2023-05-19T08:46:40;101235.63;;;15.80;80.58
47913;BME280;33676;51.006;17.180;2023-05-19T08:49:12;101234.21;;;15.99;80.39
47913;BME280;33676;51.006;17.180;2023-05-19T08:51:54;101236.27;;;16.13;79.88
47913;BME280;33676;51.006;17.180;2023-05-19T08:54:32;101232.20;;;16.25;79.47
47913;BME280;33676;51.006;17.180;2023-05-19T08:57:05;101236.55;;;16.36;78.97
47913;BME280;33676;51.006;17.180;2023-05-19T08:59:33;101227.63;;;16.43;78.37
47913;BME280;33676;51.006;17.180;2023-05-19T09:02:03;101223.54;;;16.50;78.21
47913;BME280;33676;51.006;17.180;2023-05-19T09:04:32;101225.67;;;16.62;78.15
47913;BME280;33676;51.006;17.180;2023-05-19T09:07:01;101223.16;;;16.74;77.83
47913;BME280;33676;51.006;17.180;2023-05-19T09:09:31;101226.65;;;16.86;77.77
47913;BME280;33676;51.006;17.180;2023-05-19T09:12:00;101228.37;;;16.95;77.40
47913;BME280;33676;51.006;17.180;2023-05-19T09:14:28;101226.68;;;17.02;77.18
47913;BME280;33676;51.006;17.180;2023-05-19T09:16:57;101225.33;;;17.13;77.35
47913;BME280;33676;51.006;17.180;2023-05-19T09:19:29;101224.72;;;17.25;77.21
47913;BME280;33676;51.006;17.180;2023-05-19T09:22:00;101225.05;;;17.37;77.14
47913;BME280;33676;51.006;17.180;2023-05-19T09:24:30;101218.44;;;17.47;76.99
47913;BME280;33676;51.006;17.180;2023-05-19T09:27:00;101219.81;;;17.54;76.41
47913;BME280;33676;51.006;17.180;2023-05-19T09:29:29;101215.95;;;17.57;76.03
47913;BME280;33676;51.006;17.180;2023-05-19T09:31:58;101214.20;;;17.59;75.71
47913;BME280;33676;51.006;17.180;2023-05-19T09:34:33;101216.45;;;17.58;75.49
47913;BME280;33676;51.006;17.180;2023-05-19T09:37:01;101212.27;;;17.59;75.46
47913;BME280;33676;51.006;17.180;2023-05-19T09:39:29;101214.19;;;17.57;75.46
47913;BME280;33676;51.006;17.180;2023-05-19T09:42:03;101212.80;;;17.55;75.35
47913;BME280;33676;51.006;17.180;2023-05-19T09:53:45;101200.84;;;17.33;74.74
47913;BME280;33676;51.006;17.180;2023-05-19T09:56:13;101200.95;;;17.36;74.93
47913;BME280;33676;51.006;17.180;2023-05-19T09:58:42;101199.02;;;17.36;74.81
47913;BME280;33676;51.006;17.180;2023-05-19T10:01:11;101200.64;;;17.32;74.70
47913;BME280;33676;51.006;17.180;2023-05-19T10:03:40;101197.55;;;17.29;74.63
47913;BME280;33676;51.006;17.180;2023-05-19T10:06:10;101197.48;;;17.33;74.76
47913;BME280;33676;51.006;17.180;2023-05-19T10:08:39;101193.86;;;17.32;74.66
47913;BME280;33676;51.006;17.180;2023-05-19T10:11:10;101193.22;;;17.24;74.51
47913;BME280;33676;51.006;17.180;2023-05-19T10:13:39;101194.69;;;17.15;74.40
47913;BME280;33676;51.006;17.180;2023-05-19T10:16:08;101192.41;;;17.08;74.46
47913;BME280;33676;51.006;17.180;2023-05-19T10:18:38;101192.88;;;17.03;74.44
47913;BME280;33676;51.006;17.180;2023-05-19T10:21:07;101192.07;;;17.02;74.68
47913;BME280;33676;51.006;17.180;2023-05-19T10:23:37;101189.48;;;17.01;74.53
47913;BME280;33676;51.006;17.180;2023-05-19T10:26:06;101181.13;;;17.00;74.53
47913;BME280;33676;51.006;17.180;2023-05-19T10:28:38;101178.59;;;16.98;74.39
47913;BME280;33676;51.006;17.180;2023-05-19T10:31:11;101177.53;;;16.97;74.45
47913;BME280;33676;51.006;17.180;2023-05-19T10:34:22;101177.95;;;16.94;74.63
47913;BME280;33676;51.006;17.180;2023-05-19T10:37:25;101179.70;;;16.88;74.63
47913;BME280;33676;51.006;17.180;2023-05-19T10:40:09;101181.92;;;16.83;74.85
47913;BME280;33676;51.006;17.180;2023-05-19T10:45:53;101177.98;;;16.78;74.49
47913;BME280;33676;51.006;17.180;2023-05-19T10:48:22;101185.16;;;16.73;74.35
47913;BME280;33676;51.006;17.180;2023-05-19T10:50:53;101188.08;;;16.68;74.55
47913;BME280;33676;51.006;17.180;2023-05-19T10:53:31;101192.59;;;16.63;74.74
47913;BME280;33676;51.006;17.180;2023-05-19T10:56:01;101192.56;;;16.57;74.87
47913;BME280;33676;51.006;17.180;2023-05-19T10:58:47;101192.37;;;16.49;74.61
47913;BME280;33676;51.006;17.180;2023-05-19T11:01:18;101189.26;;;16.50;74.64
47913;BME280;33676;51.006;17.180;2023-05-19T11:03:55;101188.78;;;16.58;74.74
47913;BME280;33676;51.006;17.180;2023-05-19T11:06:32;101185.34;;;16.75;75.20
47913;BME280;33676;51.006;17.180;2023-05-19T11:09:17;101183.52;;;16.87;75.07
47913;BME280;33676;51.006;17.180;2023-05-19T11:11:53;101186.13;;;16.99;75.19
47913;BME280;33676;51.006;17.180;2023-05-19T11:14:25;101187.35;;;17.03;74.90
47913;BME280;33676;51.006;17.180;2023-05-19T11:16:58;101187.08;;;17.06;74.77
47913;BME280;33676;51.006;17.180;2023-05-19T11:19:29;101184.09;;;17.10;74.74
47913;BME280;33676;51.006;17.180;2023-05-19T11:22:12;101177.83;;;17.13;74.77
47913;BME280;33676;51.006;17.180;2023-05-19T11:24:45;101178.52;;;17.16;74.78
47913;BME280;33676;51.006;17.180;2023-05-19T11:27:29;101182.28;;;17.17;74.76
47913;BME280;33676;51.006;17.180;2023-05-19T11:32:36;101182.01;;;17.17;74.53
47913;BME280;33676;51.006;17.180;2023-05-19T11:35:10;101180.55;;;17.14;74.42
47913;BME280;33676;51.006;17.180;2023-05-19T11:37:38;101182.39;;;17.11;74.46
47913;BME280;33676;51.006;17.180;2023-05-19T11:40:11;101180.16;;;17.08;74.44
47913;BME280;33676;51.006;17.180;2023-05-19T11:42:40;101182.70;;;17.06;74.36
47913;BME280;33676;51.006;17.180;2023-05-19T11:45:09;101183.78;;;17.05;74.52
47913;BME280;33676;51.006;17.180;2023-05-19T11:47:37;101185.60;;;17.07;74.44
47913;BME280;33676;51.006;17.180;2023-05-19T11:50:26;101185.38;;;17.09;74.45
47913;BME280;33676;51.006;17.180;2023-05-19T11:52:54;101180.50;;;17.07;74.25
47913;BME280;33676;51.006;17.180;2023-05-19T11:55:24;101183.31;;;17.03;74.25
47913;BME280;33676;51.006;17.180;2023-05-19T11:57:57;101178.11;;;16.98;74.24
47913;BME280;33676;51.006;17.180;2023-05-19T12:00:34;101179.26;;;16.91;74.22
47913;BME280;33676;51.006;17.180;2023-05-19T12:06:18;101175.88;;;16.92;74.55
47913;BME280;33676;51.006;17.180;2023-05-19T12:08:47;101170.72;;;16.90;74.64
47913;BME280;33676;51.006;17.180;2023-05-19T12:11:17;101175.80;;;16.91;74.73
47913;BME280;33676;51.006;17.180;2023-05-19T12:13:47;101174.31;;;16.89;74.85
47913;BME280;33676;51.006;17.180;2023-05-19T12:16:21;101178.16;;;16.86;74.84
47913;BME280;33676;51.006;17.180;2023-05-19T12:18:50;101178.52;;;16.80;74.86
47913;BME280;33676;51.006;17.180;2023-05-19T12:21:18;101182.13;;;16.71;74.82
47913;BME280;33676;51.006;17.180;2023-05-19T12:23:47;101179.98;;;16.61;74.78
47913;BME280;33676;51.006;17.180;2023-05-19T12:26:15;101182.50;;;16.55;74.78
47913;BME280;33676;51.006;17.180;2023-05-19T12:28:48;101183.72;;;16.53;75.05
47913;BME280;33676;51.006;17.180;2023-05-19T12:31:20;101182.52;;;16.57;75.27
47913;BME280;33676;51.006;17.180;2023-05-19T12:33:50;101182.66;;;16.61;75.41
47913;BME280;33676;51.006;17.180;2023-05-19T12:36:19;101184.64;;;16.67;75.49
47913;BME280;33676;51.006;17.180;2023-05-19T12:38:54;101181.71;;;16.74;75.48
47913;BME280;33676;51.006;17.180;2023-05-19T12:41:24;101180.99;;;16.80;75.42
47913;BME280;33676;51.006;17.180;2023-05-19T12:43:54;101178.05;;;16.85;75.54
47913;BME280;33676;51.006;17.180;2023-05-19T12:46:23;101175.98;;;16.90;75.64
47913;BME280;33676;51.006;17.180;2023-05-19T12:48:51;101179.64;;;16.93;75.71
47913;BME280;33676;51.006;17.180;2023-05-19T12:51:20;101178.48;;;16.94;75.73
47913;BME280;33676;51.006;17.180;2023-05-19T12:53:49;101175.46;;;16.96;75.69
47913;BME280;33676;51.006;17.180;2023-05-19T12:56:18;101178.51;;;16.94;75.42
47913;BME280;33676;51.006;17.180;2023-05-19T12:58:46;101179.54;;;16.92;75.52
47913;BME280;33676;51.006;17.180;2023-05-19T13:01:16;101179.39;;;16.92;75.61
47913;BME280;33676;51.006;17.180;2023-05-19T13:03:45;101179.36;;;16.90;75.67
47913;BME280;33676;51.006;17.180;2023-05-19T13:06:14;101176.95;;;16.83;75.41
47913;BME280;33676;51.006;17.180;2023-05-19T13:08:45;101175.02;;;16.76;75.35
47913;BME280;33676;51.006;17.180;2023-05-19T13:11:14;101174.45;;;16.68;75.54
47913;BME280;33676;51.006;17.180;2023-05-19T13:13:45;101170.00;;;16.61;75.39
47913;BME280;33676;51.006;17.180;2023-05-19T13:16:14;101175.80;;;16.53;75.56
47913;BME280;33676;51.006;17.180;2023-05-19T13:18:43;101177.23;;;16.44;75.36
47913;BME280;33676;51.006;17.180;2023-05-19T13:21:11;101172.34;;;16.42;75.81
47913;BME280;33676;51.006;17.180;2023-05-19T13:23:40;101174.42;;;16.44;76.08
47913;BME280;33676;51.006;17.180;2023-05-19T13:26:09;101175.19;;;16.50;76.29
47913;BME280;33676;51.006;17.180;2023-05-19T13:28:40;101175.09;;;16.57;76.61
47913;BME280;33676;51.006;17.180;2023-05-19T13:31:08;101168.81;;;16.66;76.75
47913;BME280;33676;51.006;17.180;2023-05-19T13:33:37;101168.50;;;16.79;76.90